createdAt,value
2023-03-28T00:01:11.711Z,99448.81
2023-03-28T00:03:42.418Z,99453.13
2023-03-28T00:06:12.258Z,99449.81
2023-03-28T00:08:40.203Z,99456.22
2023-03-28T00:11:18.601Z,99455.19
2023-03-28T00:13:46.866Z,99465.28
2023-03-28T00:16:14.371Z,99467.38
2023-03-28T00:18:42.489Z,99470.03
2023-03-28T00:21:25.018Z,99467.59
2023-03-28T00:23:53.469Z,99475.63
2023-03-28T00:26:22.434Z,99473.13
2023-03-28T00:28:48.811Z,99474.78
2023-03-28T00:31:15.716Z,99480.56
2023-03-28T00:33:42.224Z,99485.09
2023-03-28T00:36:10.389Z,99481.00
2023-03-28T00:38:38.525Z,99491.69
2023-03-28T00:41:05.843Z,99484.72
2023-03-28T00:43:44.395Z,99484.91
2023-03-28T00:46:18.987Z,99485.13
2023-03-28T00:48:55.098Z,99489.88
2023-03-28T00:51:27.089Z,99496.28
2023-03-28T00:54:00.915Z,99489.28
2023-03-28T00:56:31.908Z,99487.63
2023-03-28T00:59:02.414Z,99496.69
2023-03-28T01:01:28.886Z,99488.88
2023-03-28T01:04:03.019Z,99496.91
2023-03-28T01:06:32.863Z,99503.88
2023-03-28T01:09:02.100Z,99499.13
2023-03-28T01:11:29.007Z,99499.97
2023-03-28T01:13:55.614Z,99490.91
2023-03-28T01:16:22.520Z,99488.44
2023-03-28T01:18:53.314Z,99495.03
2023-03-28T01:21:48.702Z,99493.41
2023-03-28T01:24:45.822Z,99494.84
2023-03-28T01:27:26.762Z,99497.53
2023-03-28T01:30:22.637Z,99500.22
2023-03-28T01:33:13.536Z,99496.94
2023-03-28T01:35:46.295Z,99509.50
2023-03-28T01:38:50.328Z,99506.41
2023-03-28T01:41:28.950Z,99513.59
2023-03-28T01:44:34.391Z,99519.78
2023-03-28T01:47:13.795Z,99511.38
2023-03-28T01:49:47.042Z,99515.91
2023-03-28T01:52:23.128Z,99522.28
2023-03-28T01:55:13.485Z,99515.31
2023-03-28T01:57:52.636Z,99520.03
2023-03-28T02:00:33.646Z,99518.16
2023-03-28T02:03:05.940Z,99517.34
2023-03-28T02:05:34.476Z,99517.56
2023-03-28T02:08:04.947Z,99519.44
2023-03-28T02:10:32.864Z,99516.97
2023-03-28T02:13:03.639Z,99522.53
2023-03-28T02:15:32.141Z,99525.63
2023-03-28T02:18:08.430Z,99530.97
2023-03-28T02:20:37.608Z,99523.97
2023-03-28T02:23:09.567Z,99525.00
2023-03-28T02:25:36.500Z,99535.72
2023-03-28T02:28:07.668Z,99530.75
2023-03-28T02:30:35.970Z,99522.75
2023-03-28T02:33:05.050Z,99521.94
2023-03-28T02:35:58.218Z,99526.88
2023-03-28T02:38:43.246Z,99529.78
2023-03-28T02:41:52.957Z,99524.03
2023-03-28T02:44:53.131Z,99517.03
2023-03-28T02:47:31.985Z,99522.38
2023-03-28T02:50:25.841Z,99517.44
2023-03-28T02:53:07.761Z,99523.44
2023-03-28T02:55:54.321Z,99526.09
2023-03-28T02:58:29.388Z,99528.94
2023-03-28T03:00:56.242Z,99525.47
2023-03-28T03:03:23.606Z,99527.53
2023-03-28T03:05:50.209Z,99526.94
2023-03-28T03:08:17.385Z,99526.94
2023-03-28T03:10:43.770Z,99519.94
2023-03-28T03:13:10.309Z,99525.91
2023-03-28T03:15:36.911Z,99527.75
2023-03-28T03:18:04.478Z,99525.28
2023-03-28T03:20:34.029Z,99526.34
2023-03-28T03:23:01.661Z,99531.88
2023-03-28T03:25:31.211Z,99527.78
2023-03-28T03:27:57.678Z,99535.19
2023-03-28T03:30:24.214Z,99527.56
2023-03-28T03:32:50.629Z,99534.56
2023-03-28T03:35:17.187Z,99526.75
2023-03-28T03:37:43.617Z,99533.94
2023-03-28T03:40:10.329Z,99519.97
2023-03-28T03:42:37.281Z,99523.69
2023-03-28T03:45:04.681Z,99523.69
2023-03-28T03:47:31.579Z,99524.69
2023-03-28T03:49:58.092Z,99523.69
2023-03-28T03:52:24.938Z,99522.03
2023-03-28T03:54:51.700Z,99528.41
2023-03-28T03:57:18.182Z,99526.56
2023-03-28T03:59:44.575Z,99532.72
2023-03-28T04:02:12.051Z,99528.22
2023-03-28T04:04:40.444Z,99522.47
2023-03-28T04:07:07.298Z,99524.09
2023-03-28T04:09:33.720Z,99531.06
2023-03-28T04:12:00.195Z,99530.47
2023-03-28T04:14:26.631Z,99527.81
2023-03-28T04:16:53.808Z,99530.06
2023-03-28T04:19:20.468Z,99522.88
2023-03-28T04:21:48.607Z,99534.38
2023-03-28T04:24:16.165Z,99535.59
2023-03-28T04:26:43.562Z,99536.66
2023-03-28T04:29:10.481Z,99543.03
2023-03-28T04:31:38.972Z,99544.28
2023-03-28T04:34:06.492Z,99546.31
2023-03-28T04:36:33.058Z,99549.19
2023-03-28T04:39:02.321Z,99552.06
2023-03-28T04:41:29.769Z,99561.13
2023-03-28T04:43:56.256Z,99559.28
2023-03-28T04:46:22.843Z,99561.94
2023-03-28T04:48:49.332Z,99568.91
2023-03-28T04:51:24.365Z,99577.16
2023-03-28T04:53:50.821Z,99570.97
2023-03-28T04:56:17.238Z,99570.97
2023-03-28T04:58:43.678Z,99583.09
2023-03-28T05:01:10.482Z,99572.19
2023-03-28T05:03:38.653Z,99571.38
2023-03-28T05:06:07.986Z,99573.44
2023-03-28T05:08:34.472Z,99578.56
2023-03-28T05:11:01.379Z,99589.25
2023-03-28T05:13:28.341Z,99581.25
2023-03-28T05:15:54.850Z,99586.56
2023-03-28T05:18:21.386Z,99591.91
2023-03-28T05:20:47.889Z,99578.78
2023-03-28T05:23:14.340Z,99589.25
2023-03-28T05:25:40.940Z,99585.75
2023-03-28T05:28:07.527Z,99589.84
2023-03-28T05:30:36.120Z,99595.84
2023-03-28T05:33:03.165Z,99602.59
2023-03-28T05:35:29.739Z,99603.41
2023-03-28T05:37:56.111Z,99597.88
2023-03-28T05:40:24.020Z,99602.00
2023-03-28T05:42:50.830Z,99612.84
2023-03-28T05:45:17.442Z,99619.88
2023-03-28T05:47:43.980Z,99612.84
2023-03-28T05:50:11.089Z,99613.28
2023-03-28T05:52:37.682Z,99618.81
2023-03-28T05:55:04.549Z,99622.31
2023-03-28T05:57:31.109Z,99624.97
2023-03-28T05:59:57.434Z,99622.88
2023-03-28T06:02:24.528Z,99628.59
2023-03-28T06:04:53.973Z,99636.59
2023-03-28T06:07:35.384Z,99623.38
2023-03-28T06:10:09.691Z,99626.41
2023-03-28T06:12:36.646Z,99630.25
2023-03-28T06:15:03.328Z,99628.53
2023-03-28T06:17:29.925Z,99641.03
2023-03-28T06:19:56.540Z,99644.00
2023-03-28T06:22:23.578Z,99640.59
2023-03-28T06:24:50.193Z,99642.75
2023-03-28T06:27:16.655Z,99646.97
2023-03-28T06:29:43.112Z,99649.97
2023-03-28T06:32:09.654Z,99645.56
2023-03-28T06:34:39.966Z,99650.06
2023-03-28T06:37:06.664Z,99644.88
2023-03-28T06:39:33.053Z,99646.66
2023-03-28T06:42:02.372Z,99650.56
2023-03-28T06:44:30.077Z,99652.94
2023-03-28T06:46:56.679Z,99660.19
2023-03-28T06:49:23.373Z,99657.44
2023-03-28T06:51:49.768Z,99666.72
2023-03-28T06:54:16.178Z,99664.66
2023-03-28T06:56:42.645Z,99671.28
2023-03-28T06:59:09.045Z,99669.22
2023-03-28T07:01:35.561Z,99666.22
2023-03-28T07:04:02.904Z,99675.91
2023-03-28T07:06:29.519Z,99674.47
2023-03-28T07:08:59.318Z,99673.22
2023-03-28T07:11:25.837Z,99669.91
2023-03-28T07:13:52.872Z,99673.53
2023-03-28T07:16:19.676Z,99676.38
2023-03-28T07:18:46.182Z,99674.88
2023-03-28T07:21:16.338Z,99679.84
2023-03-28T07:23:44.555Z,99681.88
2023-03-28T07:26:13.458Z,99674.88
2023-03-28T07:28:40.280Z,99677.72
2023-03-28T07:31:07.403Z,99679.06
2023-03-28T07:33:37.749Z,99677.56
2023-03-28T07:36:11.700Z,99674.88
2023-03-28T07:38:38.259Z,99676.63
2023-03-28T07:41:05.470Z,99681.59
2023-03-28T07:43:32.534Z,99679.56
2023-03-28T07:46:08.124Z,99676.91
2023-03-28T07:48:35.997Z,99686.50
2023-03-28T07:51:03.801Z,99687.84
2023-03-28T07:53:30.355Z,99690.84
2023-03-28T07:55:56.747Z,99694.28
2023-03-28T07:58:26.066Z,99698.59
2023-03-28T08:00:52.540Z,99693.81
2023-03-28T08:03:19.212Z,99694.88
2023-03-28T08:05:49.688Z,99700.19
2023-03-28T08:08:16.599Z,99701.25
2023-03-28T08:10:46.075Z,99703.63
2023-03-28T08:13:14.951Z,99699.69
2023-03-28T08:15:41.376Z,99704.81
2023-03-28T08:18:07.898Z,99703.25
2023-03-28T08:20:34.324Z,99707.09
2023-03-28T08:23:02.917Z,99708.97
2023-03-28T08:25:29.298Z,99711.47
2023-03-28T08:27:55.898Z,99712.72
2023-03-28T08:30:23.262Z,99719.47
2023-03-28T08:32:51.135Z,99717.59
2023-03-28T08:35:17.780Z,99717.22
2023-03-28T08:37:44.176Z,99713.72
2023-03-28T08:40:17.535Z,99715.34
2023-03-28T08:43:09.092Z,99714.91
2023-03-28T08:45:50.315Z,99710.56
2023-03-28T08:48:21.967Z,99706.13
2023-03-28T08:50:51.240Z,99707.56
2023-03-28T08:53:24.219Z,99704.09
2023-03-28T08:55:53.829Z,99702.81
2023-03-28T08:58:23.224Z,99702.69
2023-03-28T09:00:52.029Z,99702.94
2023-03-28T09:03:21.561Z,99710.47
2023-03-28T09:05:51.570Z,99707.63
2023-03-28T09:08:45.884Z,99704.78
2023-03-28T09:11:26.305Z,99702.69
2023-03-28T09:14:04.886Z,99704.41
2023-03-28T09:17:00.866Z,99712.59
2023-03-28T09:19:48.817Z,99707.59
2023-03-28T09:22:35.049Z,99713.59
2023-03-28T09:25:35.100Z,99705.56
2023-03-28T09:28:05.962Z,99700.34
2023-03-28T09:30:36.383Z,99713.66
2023-03-28T09:33:13.699Z,99711.88
2023-03-28T09:35:42.409Z,99705.59
2023-03-28T09:38:22.914Z,99707.88
2023-03-28T09:40:54.231Z,99708.00
2023-03-28T09:43:20.685Z,99704.63
2023-03-28T09:45:58.712Z,99697.47
2023-03-28T09:48:28.714Z,99699.91
2023-03-28T09:50:57.699Z,99702.56
2023-03-28T09:53:31.177Z,99697.19
2023-03-28T09:56:13.056Z,99694.28
2023-03-28T09:58:51.485Z,99696.69
2023-03-28T10:01:38.295Z,99696.44
2023-03-28T10:04:14.086Z,99685.63
2023-03-28T10:06:41.653Z,99687.75
2023-03-28T10:09:28.322Z,99692.16
2023-03-28T10:12:05.153Z,99692.22
2023-03-28T10:14:37.229Z,99683.81
2023-03-28T10:17:21.581Z,99690.88
2023-03-28T10:19:48.395Z,99677.34
2023-03-28T10:22:41.542Z,99669.34
2023-03-28T10:25:17.469Z,99674.44
2023-03-28T10:27:44.569Z,99676.00
2023-03-28T10:30:13.645Z,99671.00
2023-03-28T10:32:42.199Z,99662.97
2023-03-28T10:35:27.987Z,99662.47
2023-03-28T10:37:55.393Z,99656.56
2023-03-28T10:40:22.255Z,99660.66
2023-03-28T10:42:52.210Z,99654.47
2023-03-28T10:45:23.644Z,99657.78
2023-03-28T10:47:52.443Z,99653.78
2023-03-28T10:50:31.116Z,99654.09
2023-03-28T10:53:24.606Z,99652.94
2023-03-28T10:56:00.175Z,99654.19
2023-03-28T10:58:37.309Z,99649.78
2023-03-28T11:01:20.924Z,99652.75
2023-03-28T11:03:53.486Z,99648.13
2023-03-28T11:06:30.723Z,99636.47
2023-03-28T11:09:02.675Z,99644.22
2023-03-28T11:11:49.184Z,99643.91
2023-03-28T11:14:40.138Z,99644.34
2023-03-28T11:17:26.831Z,99639.66
2023-03-28T11:20:28.245Z,99641.09
2023-03-28T11:23:14.853Z,99629.00
2023-03-28T11:25:59.576Z,99626.19
2023-03-28T11:28:41.199Z,99629.22
2023-03-28T11:31:14.993Z,99617.66
2023-03-28T11:34:16.448Z,99620.00
2023-03-28T11:37:03.305Z,99618.50
2023-03-28T11:39:43.676Z,99603.69
2023-03-28T11:42:15.716Z,99615.16
2023-03-28T11:44:51.244Z,99604.47
2023-03-28T11:47:25.060Z,99594.25
2023-03-28T11:49:58.294Z,99581.78
2023-03-28T11:52:49.653Z,99592.06
2023-03-28T11:55:24.190Z,99577.63
2023-03-28T11:58:22.736Z,99577.41
2023-03-28T12:01:02.269Z,99575.00
2023-03-28T12:03:46.214Z,99576.13
2023-03-28T12:06:21.014Z,99573.41
2023-03-28T12:09:02.321Z,99572.38
2023-03-28T12:11:42.620Z,99569.81
2023-03-28T12:14:12.640Z,99563.50
2023-03-28T12:16:45.687Z,99563.16
2023-03-28T12:19:15.862Z,99548.34
2023-03-28T12:21:45.068Z,99544.63
2023-03-28T12:24:42.678Z,99539.22
2023-03-28T12:27:27.858Z,99534.34
2023-03-28T12:30:25.998Z,99534.63
2023-03-28T12:32:58.530Z,99534.88
2023-03-28T12:36:09.174Z,99530.75
2023-03-28T12:38:48.949Z,99534.59
2023-03-28T12:41:19.219Z,99521.06
2023-03-28T12:43:48.570Z,99524.88
2023-03-28T12:46:29.665Z,99528.94
2023-03-28T12:48:56.100Z,99520.50
2023-03-28T12:51:36.717Z,99514.53
2023-03-28T12:54:15.362Z,99513.47
2023-03-28T12:56:58.948Z,99516.97
2023-03-28T12:59:43.879Z,99501.78
2023-03-28T13:02:17.883Z,99504.22
2023-03-28T13:04:56.362Z,99507.47
2023-03-28T13:08:03.217Z,99507.47
2023-03-28T13:10:42.689Z,99510.75
2023-03-28T13:13:46.830Z,99493.38
2023-03-28T13:16:26.001Z,99496.09
2023-03-28T13:19:09.284Z,99489.03
2023-03-28T13:21:54.533Z,99492.25
2023-03-28T13:24:36.248Z,99490.00
2023-03-28T13:27:26.958Z,99486.72
2023-03-28T13:30:05.221Z,99475.75
2023-03-28T13:32:43.272Z,99484.53
2023-03-28T13:35:49.504Z,99482.91
2023-03-28T13:38:29.745Z,99477.38
2023-03-28T13:40:56.294Z,99463.78
2023-03-28T13:43:48.086Z,99465.25
2023-03-28T13:46:16.626Z,99457.09
2023-03-28T13:48:52.187Z,99461.16
2023-03-28T13:51:24.203Z,99469.31
2023-03-28T13:53:50.743Z,99455.25
2023-03-28T13:56:31.731Z,99456.22
2023-03-28T13:59:01.834Z,99449.72
2023-03-28T14:01:48.858Z,99451.31
2023-03-28T14:04:30.928Z,99434.56
2023-03-28T14:06:58.057Z,99422.63
2023-03-28T14:09:30.472Z,99431.28
2023-03-28T14:11:58.772Z,99425.31
2023-03-28T14:14:39.484Z,99417.03
2023-03-28T14:17:27.259Z,99409.06
2023-03-28T14:19:59.714Z,99405.97
2023-03-28T14:22:29.142Z,99400.72
2023-03-28T14:25:06.979Z,99391.03
2023-03-28T14:27:48.841Z,99387.66
2023-03-28T14:30:18.508Z,99378.56
2023-03-28T14:33:00.380Z,99379.88
2023-03-28T14:35:31.980Z,99373.13
2023-03-28T14:38:01.641Z,99375.97
2023-03-28T14:40:29.985Z,99364.50
2023-03-28T14:43:01.680Z,99367.53
2023-03-28T14:45:29.509Z,99370.75
2023-03-28T14:47:58.952Z,99367.06
2023-03-28T14:50:30.805Z,99364.44
2023-03-28T14:53:02.985Z,99363.13
2023-03-28T14:55:29.921Z,99368.44
2023-03-28T14:57:58.812Z,99359.25
2023-03-28T15:00:51.200Z,99355.19
2023-03-28T15:03:22.482Z,99342.47
2023-03-28T15:05:51.746Z,99344.69
2023-03-28T15:08:34.084Z,99338.72
2023-03-28T15:11:05.432Z,99342.28
2023-03-28T15:13:45.194Z,99334.97
2023-03-28T15:16:19.332Z,99336.09
2023-03-28T15:18:50.786Z,99331.78
2023-03-28T15:21:17.213Z,99316.00
2023-03-28T15:24:00.935Z,99315.75
2023-03-28T15:26:33.948Z,99308.38
2023-03-28T15:29:00.919Z,99304.19
2023-03-28T15:31:28.339Z,99305.16
2023-03-28T15:33:55.229Z,99291.00
2023-03-28T15:36:32.113Z,99292.13
2023-03-28T15:39:17.013Z,99286.41
2023-03-28T15:41:47.268Z,99274.00
2023-03-28T15:44:37.925Z,99270.19
2023-03-28T15:47:22.436Z,99273.50
2023-03-28T15:49:49.206Z,99278.38
2023-03-28T15:52:19.707Z,99271.84
2023-03-28T15:54:52.182Z,99273.53
2023-03-28T15:57:22.671Z,99270.66
2023-03-28T15:59:54.083Z,99271.25
2023-03-28T16:02:23.588Z,99270.25
2023-03-28T16:05:15.146Z,99267.81
2023-03-28T16:07:47.889Z,99262.94
2023-03-28T16:10:19.640Z,99258.34
2023-03-28T16:12:46.918Z,99256.97
2023-03-28T16:15:13.777Z,99246.44
2023-03-28T16:17:44.821Z,99243.97
2023-03-28T16:20:19.378Z,99240.22
2023-03-28T16:22:46.381Z,99242.09
2023-03-28T16:25:13.633Z,99249.13
2023-03-28T16:27:42.398Z,99242.09
2023-03-28T16:30:22.350Z,99244.78
2023-03-28T16:32:48.959Z,99233.97
2023-03-28T16:35:15.712Z,99235.88
2023-03-28T16:37:42.172Z,99227.47
2023-03-28T16:40:10.480Z,99227.97
2023-03-28T16:42:37.001Z,99227.19
2023-03-28T16:45:04.377Z,99221.22
2023-03-28T16:47:31.059Z,99230.41
2023-03-28T16:49:57.715Z,99222.81
2023-03-28T16:52:24.424Z,99211.47
2023-03-28T16:54:51.125Z,99225.00
2023-03-28T16:57:17.653Z,99213.34
2023-03-28T16:59:44.157Z,99212.81
2023-03-28T17:02:10.836Z,99203.31
2023-03-28T17:04:39.306Z,99203.88
2023-03-28T17:07:06.107Z,99196.53
2023-03-28T17:09:34.911Z,99193.56
2023-03-28T17:12:01.399Z,99191.38
2023-03-28T17:14:27.941Z,99191.91
2023-03-28T17:16:54.562Z,99187.56
2023-03-28T17:19:24.001Z,99182.94
2023-03-28T17:21:50.655Z,99174.00
2023-03-28T17:24:17.234Z,99166.72
2023-03-28T17:26:43.896Z,99162.09
2023-03-28T17:29:12.092Z,99158.31
2023-03-28T17:31:40.689Z,99154.78
2023-03-28T17:34:07.436Z,99162.03
2023-03-28T17:36:34.794Z,99155.53
2023-03-28T17:39:04.638Z,99164.19
2023-03-28T17:41:31.760Z,99157.13
2023-03-28T17:43:59.996Z,99145.75
2023-03-28T17:46:26.836Z,99142.72
2023-03-28T17:48:53.777Z,99141.59
2023-03-28T17:51:20.536Z,99139.16
2023-03-28T17:53:47.881Z,99138.06
2023-03-28T17:56:16.585Z,99133.72
2023-03-28T17:58:43.815Z,99126.97
2023-03-28T18:01:16.662Z,99130.75
2023-03-28T18:03:44.311Z,99146.16
2023-03-28T18:06:12.535Z,99132.06
2023-03-28T18:08:39.161Z,99134.25
2023-03-28T18:11:08.477Z,99128.28
2023-03-28T18:13:36.280Z,99133.13
2023-03-28T18:16:06.591Z,99123.41
2023-03-28T18:18:33.448Z,99121.22
2023-03-28T18:20:59.878Z,99117.97
2023-03-28T18:23:26.367Z,99113.91
2023-03-28T18:25:53.131Z,99119.84
2023-03-28T18:28:23.332Z,99114.16
2023-03-28T18:30:51.167Z,99112.53
2023-03-28T18:33:20.050Z,99108.19
2023-03-28T18:35:46.915Z,99106.81
2023-03-28T18:38:14.406Z,99106.00
2023-03-28T18:40:41.643Z,99108.16
2023-03-28T18:43:08.321Z,99108.69
2023-03-28T18:45:35.977Z,99103.53
2023-03-28T18:48:02.742Z,99097.28
2023-03-28T18:50:29.721Z,99101.00
2023-03-28T18:52:57.333Z,99098.28
2023-03-28T18:55:24.343Z,99097.19
2023-03-28T18:57:52.488Z,99096.06
2023-03-28T19:00:19.774Z,99098.22
2023-03-28T19:02:47.917Z,99092.25
2023-03-28T19:05:15.865Z,99089.28
2023-03-28T19:07:43.957Z,99081.94
2023-03-28T19:10:13.163Z,99095.69
2023-03-28T19:12:41.255Z,99097.03
2023-03-28T19:15:10.487Z,99095.41
2023-03-28T19:17:39.758Z,99099.97
2023-03-28T19:20:09.142Z,99102.94
2023-03-28T19:22:35.736Z,99110.22
2023-03-28T19:25:02.258Z,99114.28
2023-03-28T19:27:28.632Z,99114.78
2023-03-28T19:29:55.732Z,99113.72
2023-03-28T19:32:22.285Z,99123.44
2023-03-28T19:34:48.776Z,99116.16
2023-03-28T19:37:15.376Z,99124.00
2023-03-28T19:39:41.839Z,99114.03
2023-03-28T19:42:08.291Z,99121.84
2023-03-28T19:44:35.109Z,99111.34
2023-03-28T19:47:01.669Z,99113.22
2023-03-28T19:49:28.431Z,99110.53
2023-03-28T19:51:55.479Z,99112.41
2023-03-28T19:54:22.328Z,99102.97
2023-03-28T19:56:48.826Z,99119.75
2023-03-28T19:59:15.778Z,99107.66
2023-03-28T20:01:42.283Z,99104.22
2023-03-28T20:04:09.679Z,99108.56
2023-03-28T20:06:36.608Z,99104.25
2023-03-28T20:09:03.669Z,99095.91
2023-03-28T20:11:30.186Z,99095.66
2023-03-28T20:13:57.248Z,99095.38
2023-03-28T20:16:23.795Z,99094.31
2023-03-28T20:18:50.259Z,99086.75
2023-03-28T20:21:16.758Z,99090.03
2023-03-28T20:23:43.453Z,99090.84
2023-03-28T20:26:15.977Z,99078.16
2023-03-28T20:28:42.871Z,99097.06
2023-03-28T20:31:12.524Z,99089.50
2023-03-28T20:33:40.243Z,99089.78
2023-03-28T20:36:07.451Z,99083.56
2023-03-28T20:38:34.176Z,99083.56
2023-03-28T20:41:01.184Z,99078.44
2023-03-28T20:43:29.633Z,99087.56
2023-03-28T20:46:01.530Z,99093.28
2023-03-28T20:48:36.576Z,99089.78
2023-03-28T20:51:14.462Z,99093.53
2023-03-28T20:53:43.603Z,99085.94
2023-03-28T20:56:11.645Z,99086.53
2023-03-28T20:58:42.882Z,99089.22
2023-03-28T21:01:12.107Z,99092.72
2023-03-28T21:03:49.662Z,99094.63
2023-03-28T21:06:18.815Z,99087.34
2023-03-28T21:08:47.445Z,99093.53
2023-03-28T21:11:26.599Z,99089.22
2023-03-28T21:13:53.977Z,99061.16
2023-03-28T21:16:21.279Z,99021.19
2023-03-28T21:18:48.882Z,99002.28
2023-03-28T21:21:18.087Z,99013.09
2023-03-28T21:23:45.589Z,99040.88
2023-03-28T21:26:35.946Z,99027.66
2023-03-28T21:29:03.194Z,99006.63
2023-03-28T21:31:30.795Z,99015.81
2023-03-28T21:33:58.755Z,99039.84
2023-03-28T21:36:26.396Z,99047.69
2023-03-28T21:38:53.302Z,99036.91
2023-03-28T21:41:20.882Z,99034.44
2023-03-28T21:43:48.278Z,99021.22
2023-03-28T21:46:15.453Z,99026.06
2023-03-28T21:48:44.470Z,99006.63
2023-03-28T21:51:12.473Z,99024.41
2023-03-28T21:53:39.527Z,99069.22
2023-03-28T21:56:06.989Z,99065.44
2023-03-28T21:58:34.525Z,99051.69
2023-03-28T22:01:03.076Z,99042.78
2023-03-28T22:03:31.688Z,99031.44
2023-03-28T22:05:58.638Z,99019.53
2023-03-28T22:08:25.860Z,99022.50
2023-03-28T22:10:56.683Z,99014.13
2023-03-28T22:13:23.993Z,99010.84
2023-03-28T22:15:52.434Z,99026.50
2023-03-28T22:18:20.194Z,99026.50
2023-03-28T22:20:53.494Z,99034.88
2023-03-28T22:23:23.962Z,99039.44
2023-03-28T22:25:50.934Z,99059.41
2023-03-28T22:28:18.813Z,99052.94
2023-03-28T22:30:45.501Z,99048.63
2023-03-28T22:33:13.448Z,99064.50
2023-03-28T22:35:40.070Z,99062.88
2023-03-28T22:38:06.831Z,99082.84
2023-03-28T22:40:34.008Z,99096.88
2023-03-28T22:43:00.763Z,99096.59
2023-03-28T22:45:27.331Z,99092.59
2023-03-28T22:47:54.071Z,99097.41
2023-03-28T22:50:22.546Z,99100.13
2023-03-28T22:52:52.982Z,99103.09
2023-03-28T22:55:23.528Z,99099.31
2023-03-28T22:57:52.401Z,99098.81
2023-03-28T23:00:22.845Z,99104.25
2023-03-28T23:02:50.645Z,99095.91
2023-03-28T23:05:17.807Z,99091.34
2023-03-28T23:07:44.668Z,99108.56
2023-03-28T23:10:17.702Z,99110.19
2023-03-28T23:12:44.744Z,99103.66
2023-03-28T23:15:11.959Z,99098.22
2023-03-28T23:17:38.925Z,99099.53
2023-03-28T23:20:12.984Z,99098.94
2023-03-28T23:22:41.777Z,99105.63
2023-03-28T23:25:09.109Z,99098.56
2023-03-28T23:27:36.555Z,99094.19
2023-03-28T23:30:03.735Z,99079.56
2023-03-28T23:32:30.377Z,99083.28
2023-03-28T23:34:56.845Z,99066.50
2023-03-28T23:37:27.537Z,99051.13
2023-03-28T23:39:55.323Z,99041.91
2023-03-28T23:42:22.805Z,99039.50
2023-03-28T23:44:49.567Z,99028.13
2023-03-28T23:47:16.598Z,99009.25
2023-03-28T23:49:43.069Z,98993.63
2023-03-28T23:52:12.836Z,98993.63
2023-03-28T23:54:39.969Z,99011.69
2023-03-28T23:57:07.700Z,99006.28
2023-03-28T23:59:34.951Z,99008.72
